Time;durP1;ratioP1;P1;durP2;ratioP2;P2;SDS_P1;SDS_P2;PMS_P1;PMS_P2;Temp;Humidity;BMP_temperature;BMP_pressure;BME280_temperature;BME280_humidity;BME280_pressure;Samples;Min_cycle;Max_cycle;Signal;HPM_P1;HPM_P2
2023/05/14 00:01:33;;;;;;;0.20;0.20;;;;;;;17.82;77.98;99663.44;5073214;28;20048;-64
2023/05/14 00:04:02;;;;;;;0.20;0.20;;;;;;;17.75;77.49;99658.72;5073095;28;20386;-66
2023/05/14 00:06:28;;;;;;;0.20;0.20;;;;;;;17.80;77.51;99675.13;5073071;28;20388;-65
2023/05/14 00:08:53;;;;;;;0.20;0.20;;;;;;;17.53;78.37;99663.81;5072848;28;20141;-67
2023/05/14 00:11:19;;;;;;;0.20;0.20;;;;;;;17.41;79.82;99658.75;5072757;28;20064;-66
2023/05/14 00:13:48;;;;;;;0.20;0.20;;;;;;;17.43;80.97;99659.16;5072704;28;20058;-65
2023/05/14 00:16:19;;;;;;;0.20;0.20;;;;;;;17.28;81.30;99653.69;5072698;28;20028;-66
2023/05/14 00:18:44;;;;;;;0.20;0.20;;;;;;;17.36;81.48;99667.66;5072322;28;20040;-67
2023/05/14 00:21:10;;;;;;;0.20;0.20;;;;;;;17.27;77.70;99657.72;5072616;28;20105;-65
2023/05/14 00:23:38;;;;;;;0.20;0.20;;;;;;;17.46;76.17;99661.88;5073127;28;20029;-65
2023/05/14 00:26:07;;;;;;;0.20;0.20;;;;;;;17.47;75.02;99671.13;5072998;28;20098;-64
2023/05/14 00:28:32;;;;;;;0.20;0.20;;;;;;;17.53;73.92;99675.88;5073213;28;20062;-64
2023/05/14 00:31:01;;;;;;;0.20;0.20;;;;;;;17.58;73.90;99682.22;5073246;28;20406;-66
2023/05/14 00:33:28;;;;;;;0.20;0.20;;;;;;;17.58;75.04;99671.78;5073796;28;20031;-65
2023/05/14 00:35:54;;;;;;;0.20;0.20;;;;;;;17.65;75.72;99659.63;5072787;28;20040;-65
2023/05/14 00:38:19;;;;;;;0.20;0.20;;;;;;;17.56;77.46;99657.34;5072642;28;20025;-65
2023/05/14 00:40:49;;;;;;;0.20;0.20;;;;;;;17.36;79.38;99650.78;5072604;28;20032;-65
2023/05/14 00:43:20;;;;;;;0.20;0.20;;;;;;;17.31;80.58;99628.75;5074153;28;20052;-65
2023/05/14 00:45:49;;;;;;;0.20;0.20;;;;;;;17.20;81.43;99615.63;5072852;28;20033;-66
2023/05/14 00:48:14;;;;;;;0.20;0.20;;;;;;;17.28;81.76;99594.66;5074098;28;20050;-64
2023/05/14 00:50:42;;;;;;;0.20;0.20;;;;;;;17.03;82.88;99563.28;5072747;28;20360;-65
2023/05/14 00:53:09;;;;;;;0.20;0.20;;;;;;;17.22;82.51;99585.09;5072923;28;20040;-65
2023/05/14 00:55:42;;;;;;;0.20;0.20;;;;;;;17.12;83.75;99593.69;5072487;28;20035;-66
2023/05/14 00:58:12;;;;;;;0.20;0.20;;;;;;;17.05;84.40;99582.53;5072475;28;20111;-66
2023/05/14 01:00:39;;;;;;;0.20;0.20;;;;;;;17.07;84.34;99582.91;5072381;28;20032;-66
2023/05/14 01:03:06;;;;;;;0.20;0.20;;;;;;;16.92;85.45;99582.28;5072917;28;20384;-66
2023/05/14 01:06:02;;;;;;;0.20;0.20;;;;;;;16.88;84.78;99595.56;5072361;28;20036;-65
2023/05/14 01:08:58;;;;;;;0.20;0.20;;;;;;;16.82;84.30;99598.06;5072865;28;20027;-66
2023/05/14 01:11:30;;;;;;;0.20;0.20;;;;;;;16.75;85.11;99612.97;5072419;28;20479;-66
2023/05/14 01:14:13;;;;;;;0.20;0.20;;;;;;;16.85;84.25;99596.44;5072171;28;20031;-66
2023/05/14 01:16:39;;;;;;;0.20;0.20;;;;;;;16.72;85.16;99605.41;5072596;28;20029;-67
2023/05/14 01:19:17;;;;;;;0.20;0.20;;;;;;;16.60;86.04;99586.22;5072211;28;20538;-65
2023/05/14 01:21:45;;;;;;;0.20;0.20;;;;;;;16.61;86.21;99570.19;5072531;28;20048;-66
2023/05/14 01:24:11;;;;;;;0.20;0.20;;;;;;;16.57;86.38;99577.88;5072156;28;20040;-65
2023/05/14 01:26:36;;;;;;;0.20;0.20;;;;;;;16.47;86.86;99580.38;5072126;28;20028;-64
2023/05/14 01:29:12;;;;;;;0.20;0.20;;;;;;;16.69;86.03;99609.00;5073024;28;20031;-65
2023/05/14 01:31:44;;;;;;;0.20;0.20;;;;;;;16.61;86.22;99621.53;5076387;28;20085;-63
2023/05/14 01:34:13;;;;;;;0.20;0.20;;;;;;;16.62;87.08;99614.72;5076868;28;20082;-64
2023/05/14 01:36:40;;;;;;;0.20;0.20;;;;;;;16.60;87.99;99591.84;5076263;28;20025;-64
2023/05/14 01:39:08;;;;;;;0.20;0.20;;;;;;;16.55;87.89;99583.88;5075938;28;20043;-65
2023/05/14 01:41:35;;;;;;;0.20;0.20;;;;;;;16.44;88.88;99577.59;5077447;28;20111;-66
2023/05/14 01:44:04;;;;;;;0.20;0.20;;;;;;;16.51;88.32;99580.31;5077407;28;20036;-65
2023/05/14 01:46:35;;;;;;;0.20;0.20;;;;;;;16.46;88.42;99573.16;5075810;28;20025;-65
2023/05/14 01:49:03;;;;;;;0.20;0.20;;;;;;;16.42;89.25;99574.41;5077100;28;20032;-66
2023/05/14 01:51:32;;;;;;;0.20;0.20;;;;;;;16.38;88.79;99579.25;5075385;28;20051;-65
2023/05/14 01:53:58;;;;;;;0.30;0.30;;;;;;;16.46;88.53;99575.19;5075479;28;20032;-66
2023/05/14 01:56:24;;;;;;;0.20;0.20;;;;;;;16.53;87.52;99574.28;5075621;28;20032;-66
2023/05/14 01:58:50;;;;;;;0.20;0.20;;;;;;;16.61;87.30;99575.78;5075873;28;20029;-65
2023/05/14 02:01:18;;;;;;;0.30;0.30;;;;;;;16.56;87.55;99574.22;5076093;28;20382;-66
2023/05/14 02:03:44;;;;;;;0.20;0.20;;;;;;;16.57;87.67;99569.44;5076076;28;20024;-64
2023/05/14 02:06:11;;;;;;;0.20;0.20;;;;;;;16.49;87.34;99579.94;5075968;28;20071;-64
2023/05/14 02:08:37;;;;;;;0.20;0.20;;;;;;;16.45;87.23;99568.72;5075944;28;20028;-65
2023/05/14 02:11:02;;;;;;;0.20;0.20;;;;;;;16.49;87.31;99582.75;5075412;28;20463;-66
2023/05/14 02:13:31;;;;;;;0.20;0.20;;;;;;;16.46;87.04;99590.00;5074531;28;20029;-64
2023/05/14 02:15:56;;;;;;;0.20;0.20;;;;;;;16.44;87.98;99584.00;5075600;28;20463;-65
2023/05/14 02:18:21;;;;;;;0.20;0.20;;;;;;;16.45;88.45;99582.78;5074987;28;20070;-66
2023/05/14 02:20:49;;;;;;;0.20;0.20;;;;;;;16.56;89.48;99579.84;5074977;28;20032;-66
2023/05/14 02:23:15;;;;;;;0.20;0.20;;;;;;;16.53;89.23;99586.31;5075174;28;20490;-66
2023/05/14 02:25:40;;;;;;;0.20;0.20;;;;;;;16.55;89.78;99602.75;5074924;28;20029;-65
2023/05/14 02:28:06;;;;;;;0.20;0.20;;;;;;;16.48;87.61;99578.34;5075378;28;20033;-66
2023/05/14 02:30:34;;;;;;;0.20;0.20;;;;;;;16.92;84.24;99568.22;5075150;28;20434;-65
2023/05/14 02:33:00;;;;;;;0.20;0.20;;;;;;;16.88;84.34;99556.22;5075147;28;20101;-65
2023/05/14 02:35:25;;;;;;;0.20;0.20;;;;;;;16.93;84.55;99541.72;5075191;28;20044;-66
2023/05/14 02:37:51;;;;;;;0.20;0.20;;;;;;;16.90;85.52;99545.38;5074900;28;20497;-65
2023/05/14 02:40:16;;;;;;;0.20;0.20;;;;;;;16.70;87.34;99517.09;5074847;28;20032;-66
2023/05/14 02:42:42;;;;;;;0.20;0.20;;;;;;;16.64;88.26;99516.78;5076314;28;20356;-66
2023/05/14 02:45:15;;;;;;;0.20;0.20;;;;;;;16.54;88.30;99509.28;5074693;28;20102;-66
2023/05/14 02:47:41;;;;;;;0.20;0.20;;;;;;;16.43;90.02;99517.03;5074159;28;20021;-66
2023/05/14 02:50:07;;;;;;;0.20;0.20;;;;;;;16.37;91.95;99497.06;5074638;28;20028;-66
2023/05/14 02:52:37;;;;;;;0.20;0.20;;;;;;;16.41;93.12;99499.81;5073955;28;20457;-65
2023/05/14 02:55:05;;;;;;;0.20;0.20;;;;;;;16.38;94.77;99506.25;5074306;28;20058;-67
2023/05/14 02:57:31;;;;;;;0.20;0.20;;;;;;;16.35;95.25;99495.84;5074850;28;20174;-66
2023/05/14 02:59:56;;;;;;;0.20;0.20;;;;;;;16.27;96.27;99477.53;5074118;28;20495;-67
2023/05/14 03:02:26;;;;;;;0.20;0.20;;;;;;;16.12;97.72;99477.69;5074174;28;20035;-67
2023/05/14 03:04:52;;;;;;;0.20;0.20;;;;;;;16.13;98.35;99492.50;5074138;28;20029;-65
2023/05/14 03:07:17;;;;;;;0.20;0.20;;;;;;;16.11;100.00;99472.47;5074007;28;20081;-65
2023/05/14 03:09:45;;;;;;;0.20;0.20;;;;;;;16.04;100.00;99464.94;5073982;28;20078;-67
2023/05/14 03:12:11;;;;;;;0.20;0.20;;;;;;;16.04;100.00;99462.16;5074450;28;20055;-66
2023/05/14 03:14:37;;;;;;;0.20;0.20;;;;;;;16.05;100.00;99460.91;5074152;28;20060;-65
2023/05/14 03:17:05;;;;;;;0.20;0.20;;;;;;;16.01;100.00;99448.94;5074376;28;20097;-66
2023/05/14 03:19:34;;;;;;;0.20;0.20;;;;;;;15.95;100.00;99445.00;5074094;28;20044;-67
2023/05/14 03:21:59;;;;;;;0.20;0.20;;;;;;;15.89;100.00;99441.06;5073776;28;20063;-66
2023/05/14 03:24:27;;;;;;;0.20;0.20;;;;;;;15.87;100.00;99449.91;5073751;28;20052;-66
2023/05/14 03:27:00;;;;;;;0.20;0.20;;;;;;;15.85;100.00;99446.69;5073665;28;20029;-64
2023/05/14 03:29:30;;;;;;;0.20;0.20;;;;;;;15.82;100.00;99449.53;5073894;28;20033;-66
2023/05/14 03:31:56;;;;;;;0.20;0.20;;;;;;;15.85;100.00;99454.31;5073763;28;20036;-65
2023/05/14 03:34:21;;;;;;;0.20;0.20;;;;;;;15.80;100.00;99466.00;5073774;28;20036;-65
2023/05/14 03:36:49;;;;;;;0.20;0.20;;;;;;;15.81;100.00;99461.97;5073992;28;20374;-65
2023/05/14 03:39:18;;;;;;;0.20;0.20;;;;;;;15.77;100.00;99461.22;5073759;28;20028;-64
2023/05/14 03:41:45;;;;;;;0.20;0.20;;;;;;;15.73;100.00;99447.22;5073938;28;20526;-64
2023/05/14 03:44:14;;;;;;;0.20;0.20;;;;;;;15.77;100.00;99450.00;5073666;28;20048;-65
2023/05/14 03:46:42;;;;;;;0.20;0.20;;;;;;;15.71;100.00;99447.66;5073492;28;20528;-65
2023/05/14 03:49:10;;;;;;;0.20;0.20;;;;;;;15.77;100.00;99461.22;5072863;28;20028;-66
2023/05/14 03:51:37;;;;;;;0.20;0.20;;;;;;;15.95;100.00;99475.84;5072812;28;20066;-66
2023/05/14 03:54:08;;;;;;;0.20;0.20;;;;;;;15.92;100.00;99474.66;5072111;28;20419;-65
2023/05/14 03:56:36;;;;;;;0.20;0.20;;;;;;;15.92;100.00;99485.09;5073582;28;20020;-67
2023/05/14 03:59:02;;;;;;;0.20;0.20;;;;;;;15.84;100.00;99472.38;5074585;28;20031;-64
2023/05/14 04:01:27;;;;;;;0.20;0.20;;;;;;;15.79;100.00;99475.63;5072961;28;20028;-65
2023/05/14 04:03:53;;;;;;;0.20;0.20;;;;;;;15.92;100.00;99476.69;5073099;28;20028;-67
2023/05/14 04:06:21;;;;;;;0.20;0.20;;;;;;;15.96;100.00;99488.66;5072841;28;20028;-65
2023/05/14 04:08:49;;;;;;;0.20;0.20;;;;;;;15.87;100.00;99483.56;5072781;28;20029;-65
2023/05/14 04:11:14;;;;;;;0.20;0.20;;;;;;;15.83;100.00;99484.81;5073011;28;20089;-64
2023/05/14 04:13:40;;;;;;;0.20;0.20;;;;;;;15.86;100.00;99514.81;5072662;28;20535;-64
2023/05/14 04:16:05;;;;;;;0.20;0.20;;;;;;;15.99;100.00;99510.28;5072798;28;20044;-67
2023/05/14 04:18:36;;;;;;;0.20;0.20;;;;;;;15.95;100.00;99507.50;5072912;28;20375;-64
2023/05/14 04:21:02;;;;;;;0.20;0.20;;;;;;;15.96;100.00;99508.31;5072612;28;20090;-67
2023/05/14 04:23:28;;;;;;;0.20;0.20;;;;;;;16.00;100.00;99500.66;5072549;28;20024;-66
2023/05/14 04:25:56;;;;;;;0.20;0.20;;;;;;;16.04;100.00;99501.44;5073090;28;20040;-65
2023/05/14 04:28:24;;;;;;;0.20;0.20;;;;;;;16.13;100.00;99492.50;5072548;28;20086;-65
2023/05/14 04:30:49;;;;;;;0.20;0.20;;;;;;;16.18;100.00;99497.66;5072476;28;20035;-66
2023/05/14 04:33:15;;;;;;;0.20;0.20;;;;;;;16.27;100.00;99502.78;5072913;28;20029;-67
2023/05/14 04:35:44;;;;;;;0.20;0.20;;;;;;;16.35;100.00;99507.09;5072453;28;20029;-65
2023/05/14 04:38:10;;;;;;;0.20;0.20;;;;;;;16.42;100.00;99515.44;5072652;28;20467;-65
2023/05/14 04:40:38;;;;;;;0.20;0.20;;;;;;;16.48;99.87;99522.19;5072377;28;20039;-66
2023/05/14 04:43:07;;;;;;;0.20;0.20;;;;;;;16.54;99.35;99531.75;5072353;28;20029;-66
2023/05/14 04:45:34;;;;;;;0.20;0.20;;;;;;;16.60;98.77;99540.50;5072871;28;20544;-66
2023/05/14 04:48:03;;;;;;;0.20;0.20;;;;;;;16.52;98.25;99548.22;5073250;28;20029;-66
2023/05/14 04:50:31;;;;;;;0.20;0.20;;;;;;;16.51;98.71;99577.50;5072268;28;20486;-66
2023/05/14 04:52:56;;;;;;;0.20;0.20;;;;;;;16.52;97.71;99584.72;5071525;28;20078;-67
2023/05/14 04:55:27;;;;;;;0.20;0.20;;;;;;;16.70;93.99;99596.56;5072354;28;20040;-66
2023/05/14 04:57:55;;;;;;;0.20;0.20;;;;;;;16.69;92.36;99611.03;5072164;28;20029;-67
2023/05/14 05:00:23;;;;;;;0.20;0.20;;;;;;;16.61;92.14;99613.09;5072375;28;20463;-66
2023/05/14 05:02:51;;;;;;;0.20;0.20;;;;;;;16.64;92.53;99611.47;5072015;28;20035;-65
2023/05/14 05:05:17;;;;;;;0.20;0.20;;;;;;;16.71;92.09;99608.63;5072316;28;20467;-66
2023/05/14 05:07:47;;;;;;;0.20;0.20;;;;;;;16.68;92.05;99613.03;5072001;28;20099;-66
2023/05/14 05:10:12;;;;;;;0.20;0.20;;;;;;;16.77;91.27;99624.59;5072088;28;20479;-66
2023/05/14 05:12:41;;;;;;;0.20;0.20;;;;;;;16.87;89.40;99628.50;5072281;28;20074;-64
2023/05/14 05:15:09;;;;;;;0.20;0.20;;;;;;;16.87;89.52;99638.94;5072256;28;20609;-66
2023/05/14 05:17:35;;;;;;;0.20;0.20;;;;;;;16.93;87.96;99635.25;5072005;28;20029;-65
2023/05/14 05:20:00;;;;;;;0.20;0.20;;;;;;;16.88;86.78;99604.00;5072513;28;20028;-66
2023/05/14 05:22:31;;;;;;;0.20;0.20;;;;;;;17.19;84.82;99633.72;5071815;28;20364;-66
2023/05/14 05:24:59;;;;;;;0.20;0.20;;;;;;;17.29;83.72;99655.28;5072490;28;20485;-64
2023/05/14 05:27:26;;;;;;;0.20;0.20;;;;;;;17.34;83.46;99650.41;5073556;28;20107;-65
2023/05/14 05:29:55;;;;;;;0.20;0.20;;;;;;;17.41;85.80;99650.31;5072140;28;20554;-67
2023/05/14 05:32:23;;;;;;;0.20;0.20;;;;;;;17.42;86.31;99637.88;5072086;28;20170;-65
2023/05/14 05:34:50;;;;;;;0.20;0.20;;;;;;;17.62;85.76;99632.34;5073452;28;20028;-66
2023/05/14 05:37:16;;;;;;;0.20;0.20;;;;;;;17.89;85.59;99632.38;5071827;28;20043;-65
2023/05/14 05:39:46;;;;;;;0.20;0.20;;;;;;;17.77;86.21;99657.06;5072103;28;20032;-66
2023/05/14 05:42:14;;;;;;;0.20;0.20;;;;;;;17.96;86.26;99663.22;5071824;28;20028;-66
2023/05/14 05:44:40;;;;;;;0.20;0.20;;;;;;;18.05;85.81;99657.84;5072096;28;20029;-64
2023/05/14 05:47:11;;;;;;;0.20;0.20;;;;;;;17.80;88.50;99661.84;5072133;28;20452;-66
2023/05/14 05:49:41;;;;;;;0.20;0.20;;;;;;;17.92;88.41;99656.84;5072252;28;20036;-66
2023/05/14 05:52:10;;;;;;;0.20;0.20;;;;;;;17.85;89.18;99683.09;5071300;28;20056;-66
2023/05/14 05:54:38;;;;;;;0.20;0.20;;;;;;;17.99;87.14;99687.69;5071693;28;20033;-66
2023/05/14 05:57:09;;;;;;;0.20;0.20;;;;;;;17.91;87.52;99683.41;5072079;28;20020;-66
2023/05/14 05:59:37;;;;;;;0.20;0.20;;;;;;;17.88;87.14;99689.88;5071759;28;20116;-67
2023/05/14 06:02:07;;;;;;;0.20;0.20;;;;;;;17.89;89.23;99677.41;5071740;28;20029;-66
2023/05/14 06:04:32;;;;;;;0.20;0.20;;;;;;;17.93;89.69;99661.25;5071955;28;20032;-67
2023/05/14 06:07:00;;;;;;;0.20;0.20;;;;;;;17.95;88.21;99672.88;5071694;28;20490;-67
2023/05/14 06:09:28;;;;;;;0.20;0.20;;;;;;;18.17;86.51;99668.53;5071657;28;20143;-66
2023/05/14 06:11:56;;;;;;;0.20;0.20;;;;;;;18.34;84.76;99663.81;5071817;28;20131;-65
2023/05/14 06:14:22;;;;;;;0.20;0.20;;;;;;;18.52;83.52;99669.94;5071852;28;20479;-66
2023/05/14 06:16:47;;;;;;;0.20;0.20;;;;;;;18.63;82.08;99666.13;5073381;28;20035;-66
2023/05/14 06:19:13;;;;;;;0.20;0.20;;;;;;;18.93;83.31;99662.38;5075200;28;20040;-67
2023/05/14 06:21:44;;;;;;;0.20;0.20;;;;;;;19.24;80.42;99660.16;5075331;28;20032;-66
2023/05/14 06:24:13;;;;;;;0.20;0.20;;;;;;;19.57;76.62;99661.84;5075419;28;20414;-67
2023/05/14 06:26:40;;;;;;;0.20;0.20;;;;;;;20.07;75.39;99663.53;5074917;28;20028;-65
2023/05/14 06:29:06;;;;;;;0.20;0.20;;;;;;;20.31;74.38;99652.88;5074906;28;20024;-65
2023/05/14 06:31:34;;;;;;;0.20;0.20;;;;;;;20.39;73.58;99642.97;5074506;28;20040;-66
2023/05/14 06:34:05;;;;;;;0.20;0.20;;;;;;;20.48;73.40;99650.06;5074658;28;20028;-66
2023/05/14 06:36:33;;;;;;;0.20;0.20;;;;;;;20.48;72.78;99647.22;5074950;28;20028;-65
2023/05/14 06:39:00;;;;;;;0.20;0.20;;;;;;;20.50;72.58;99653.22;5075175;28;20074;-66
2023/05/14 06:41:28;;;;;;;0.20;0.20;;;;;;;20.49;72.17;99657.28;5074834;28;20028;-66
2023/05/14 06:43:54;;;;;;;0.20;0.20;;;;;;;20.49;71.62;99646.00;5074642;28;20024;-66
2023/05/14 06:46:20;;;;;;;0.20;0.20;;;;;;;20.29;69.44;99620.63;5074809;28;20032;-66
2023/05/14 06:48:48;;;;;;;0.20;0.20;;;;;;;20.41;68.93;99646.16;5075319;28;20055;-64
2023/05/14 06:51:14;;;;;;;0.20;0.20;;;;;;;20.37;69.19;99653.13;5074446;28;20061;-65
2023/05/14 06:53:40;;;;;;;0.20;0.20;;;;;;;20.44;68.73;99650.09;5074940;28;20400;-65
2023/05/14 06:56:05;;;;;;;0.20;0.20;;;;;;;20.51;68.66;99666.13;5074354;28;20097;-65
2023/05/14 06:58:34;;;;;;;0.20;0.20;;;;;;;20.48;68.93;99664.19;5074304;28;20029;-64
2023/05/14 07:00:59;;;;;;;0.20;0.20;;;;;;;20.47;68.83;99666.22;5074528;28;20028;-65
2023/05/14 07:03:24;;;;;;;0.20;0.20;;;;;;;20.53;69.79;99669.31;5074471;28;20024;-64
2023/05/14 07:05:52;;;;;;;0.20;0.20;;;;;;;20.64;69.23;99670.59;5074078;28;20490;-65
2023/05/14 07:08:20;;;;;;;0.20;0.20;;;;;;;20.81;68.38;99668.53;5074928;28;20436;-64
2023/05/14 07:10:46;;;;;;;0.20;0.20;;;;;;;20.88;68.54;99673.22;5074013;28;20036;-64
2023/05/14 07:13:16;;;;;;;0.20;0.20;;;;;;;20.66;70.00;99672.97;5074138;28;20020;-64
2023/05/14 07:15:41;;;;;;;0.20;0.20;;;;;;;20.71;70.32;99674.47;5073843;28;20032;-65
2023/05/14 07:18:09;;;;;;;0.20;0.20;;;;;;;20.76;69.45;99676.75;5074025;28;20032;-64
2023/05/14 07:20:38;;;;;;;0.20;0.20;;;;;;;20.92;68.57;99688.84;5073791;28;20029;-65
2023/05/14 07:23:06;;;;;;;0.20;0.20;;;;;;;21.20;65.94;99678.00;5074002;28;20033;-64
2023/05/14 07:25:34;;;;;;;0.20;0.20;;;;;;;21.27;66.50;99677.78;5074275;28;20051;-64
2023/05/14 07:28:04;;;;;;;0.20;0.20;;;;;;;21.17;66.98;99667.56;5073548;28;20024;-65
2023/05/14 07:30:30;;;;;;;0.20;0.20;;;;;;;21.56;66.19;99666.41;5073952;28;20028;-64
2023/05/14 07:32:58;;;;;;;0.20;0.20;;;;;;;22.35;63.74;99673.25;5073171;28;20029;-64
2023/05/14 07:35:26;;;;;;;0.20;0.20;;;;;;;22.74;61.33;99668.28;5073424;28;20039;-64
2023/05/14 07:37:57;;;;;;;0.20;0.20;;;;;;;22.90;59.71;99664.50;5073900;28;20029;-65
2023/05/14 07:40:27;;;;;;;0.20;0.20;;;;;;;23.13;59.67;99672.59;5073277;28;20463;-66
2023/05/14 07:42:55;;;;;;;0.20;0.20;;;;;;;22.90;59.01;99675.84;5073671;28;20546;-65
2023/05/14 07:45:25;;;;;;;0.20;0.20;;;;;;;23.23;59.07;99667.78;5073490;28;20115;-64
2023/05/14 07:47:51;;;;;;;0.20;0.20;;;;;;;23.82;57.96;99648.13;5074790;28;20032;-64
2023/05/14 07:50:17;;;;;;;0.20;0.20;;;;;;;24.24;56.59;99657.75;5073420;28;20037;-66
2023/05/14 07:52:43;;;;;;;0.20;0.20;;;;;;;24.81;54.74;99651.69;5072535;28;20048;-64
2023/05/14 07:55:09;;;;;;;0.20;0.20;;;;;;;24.79;53.74;99655.00;5073760;28;20075;-64
2023/05/14 07:57:37;;;;;;;0.20;0.20;;;;;;;24.31;54.93;99651.75;5073598;28;20035;-64
2023/05/14 08:00:11;;;;;;;0.20;0.20;;;;;;;24.22;56.47;99642.41;5072920;28;20056;-64
2023/05/14 08:02:38;;;;;;;0.20;0.20;;;;;;;24.14;56.30;99641.13;5073032;28;20028;-66
2023/05/14 08:05:07;;;;;;;0.20;0.20;;;;;;;24.13;56.91;99648.88;5072395;28;20035;-65
2023/05/14 08:07:35;;;;;;;0.20;0.20;;;;;;;23.98;58.06;99662.06;5074332;28;20036;-65
2023/05/14 08:10:01;;;;;;;0.20;0.20;;;;;;;23.70;59.38;99652.63;5072182;28;20032;-65
2023/05/14 08:12:28;;;;;;;0.20;0.20;;;;;;;23.37;60.68;99660.75;5073059;28;20024;-64
2023/05/14 08:14:56;;;;;;;0.20;0.20;;;;;;;22.97;62.38;99670.72;5072725;28;20066;-65
2023/05/14 08:17:24;;;;;;;0.20;0.20;;;;;;;22.65;63.72;99671.84;5072163;28;20036;-64
2023/05/14 08:19:49;;;;;;;0.10;0.10;;;;;;;22.53;64.55;99680.34;5072232;28;20031;-65
2023/05/14 08:22:15;;;;;;;0.20;0.20;;;;;;;22.01;66.49;99684.47;5072174;28;20032;-67
2023/05/14 08:24:41;;;;;;;0.20;0.20;;;;;;;22.02;67.84;99669.84;5072630;28;20025;-64
2023/05/14 08:27:07;;;;;;;0.20;0.20;;;;;;;21.87;68.19;99661.03;5072385;28;20063;-64
2023/05/14 08:29:38;;;;;;;0.20;0.20;;;;;;;21.84;69.30;99667.59;5072879;28;20024;-65
2023/05/14 08:32:04;;;;;;;0.20;0.20;;;;;;;22.13;67.86;99652.53;5072445;28;20475;-66
2023/05/14 08:34:29;;;;;;;0.20;0.20;;;;;;;22.44;67.77;99647.06;5071903;28;20083;-66
2023/05/14 08:36:58;;;;;;;0.20;0.20;;;;;;;22.71;66.87;99647.31;5072390;28;20033;-64
2023/05/14 08:39:26;;;;;;;0.20;0.20;;;;;;;22.83;65.87;99637.16;5072195;28;20487;-65
2023/05/14 08:41:52;;;;;;;0.20;0.20;;;;;;;23.36;63.91;99631.59;5072440;28;20029;-66
2023/05/14 08:44:24;;;;;;;0.20;0.20;;;;;;;23.89;62.08;99630.78;5072791;28;20031;-65
2023/05/14 08:46:52;;;;;;;0.20;0.20;;;;;;;24.15;60.48;99626.44;5072297;28;20024;-65
2023/05/14 08:49:29;;;;;;;0.20;0.20;;;;;;;24.32;59.00;99629.78;5072190;28;20024;-64
2023/05/14 08:51:58;;;;;;;0.20;0.20;;;;;;;24.09;59.02;99633.22;5071916;28;20053;-64
2023/05/14 08:54:27;;;;;;;0.20;0.20;;;;;;;23.87;61.55;99627.63;5072196;28;20028;-66
2023/05/14 08:56:57;;;;;;;0.20;0.20;;;;;;;24.16;59.82;99633.72;5072667;28;20460;-66
2023/05/14 08:59:23;;;;;;;0.20;0.20;;;;;;;24.54;59.59;99633.34;5072028;28;20071;-65
2023/05/14 09:01:52;;;;;;;0.20;0.20;;;;;;;24.63;58.29;99637.47;5072835;28;20039;-67
2023/05/14 09:04:22;;;;;;;0.20;0.20;;;;;;;25.05;56.88;99634.78;5072044;28;20081;-64
2023/05/14 09:06:49;;;;;;;0.20;0.20;;;;;;;25.19;56.82;99637.00;5071838;28;20118;-66
2023/05/14 09:09:15;;;;;;;0.20;0.20;;;;;;;24.87;57.75;99635.56;5071954;28;20029;-65
2023/05/14 09:11:51;;;;;;;0.20;0.20;;;;;;;24.74;58.36;99649.16;5071549;28;20388;-65
2023/05/14 09:14:19;;;;;;;0.20;0.20;;;;;;;24.64;58.76;99644.72;5071842;28;20535;-65
2023/05/14 09:16:47;;;;;;;0.20;0.20;;;;;;;24.45;58.79;99639.03;5073220;28;20028;-64
2023/05/14 09:19:14;;;;;;;0.20;0.20;;;;;;;25.00;58.15;99630.50;5072347;28;20029;-65
2023/05/14 09:21:43;;;;;;;0.20;0.20;;;;;;;25.23;57.43;99637.63;5072794;28;20370;-64
2023/05/14 09:24:21;;;;;;;0.20;0.20;;;;;;;25.96;54.85;99638.72;5072095;28;20039;-63
2023/05/14 09:26:52;;;;;;;0.20;0.20;;;;;;;25.78;54.71;99628.16;5073031;28;20502;-64
2023/05/14 09:29:17;;;;;;;0.20;0.20;;;;;;;26.10;53.62;99644.50;5073321;28;20030;-63
2023/05/14 09:31:43;;;;;;;0.20;0.20;;;;;;;26.11;52.39;99646.06;5072187;28;20032;-64
2023/05/14 09:34:11;;;;;;;0.20;0.20;;;;;;;25.70;52.77;99639.09;5071827;28;20486;-65
2023/05/14 09:36:37;;;;;;;0.20;0.20;;;;;;;25.69;53.57;99654.63;5071850;28;20028;-64
2023/05/14 09:39:03;;;;;;;0.20;0.20;;;;;;;25.23;54.51;99653.91;5071682;28;20055;-66
2023/05/14 09:41:29;;;;;;;0.20;0.20;;;;;;;25.11;55.52;99644.28;5071930;28;20111;-67
2023/05/14 09:43:57;;;;;;;0.20;0.20;;;;;;;25.10;56.47;99636.22;5071652;28;20060;-65
2023/05/14 09:46:28;;;;;;;0.20;0.20;;;;;;;25.32;55.82;99639.69;5071612;28;20058;-65
2023/05/14 09:48:55;;;;;;;0.20;0.20;;;;;;;25.36;55.39;99637.47;5071644;28;20024;-66
2023/05/14 09:51:23;;;;;;;0.10;0.10;;;;;;;25.38;55.63;99634.91;5074480;28;20083;-65
2023/05/14 09:53:52;;;;;;;0.10;0.10;;;;;;;24.95;57.67;99639.69;5075828;28;20024;-64
2023/05/14 09:56:20;;;;;;;0.20;0.20;;;;;;;24.75;58.59;99634.47;5075316;28;20032;-64
2023/05/14 09:58:45;;;;;;;0.15;0.15;;;;;;;24.51;59.60;99642.81;5075602;28;20433;-64
2023/05/14 10:01:16;;;;;;;0.20;0.20;;;;;;;24.38;59.94;99639.31;5075481;28;20123;-64
2023/05/14 10:03:43;;;;;;;0.20;0.20;;;;;;;24.14;61.05;99658.19;5075396;28;20463;-64
2023/05/14 10:06:15;;;;;;;0.20;0.20;;;;;;;24.19;60.64;99654.72;5075143;28;20467;-66
2023/05/14 10:08:43;;;;;;;0.20;0.20;;;;;;;23.97;61.35;99663.31;5074960;28;20111;-65
2023/05/14 10:11:19;;;;;;;0.20;0.20;;;;;;;23.65;63.00;99665.41;5074964;28;20475;-65
2023/05/14 10:14:06;;;;;;;0.20;0.20;;;;;;;23.30;64.23;99661.03;5074804;28;20025;-65
2023/05/14 10:16:36;;;;;;;0.20;0.20;;;;;;;23.13;64.77;99658.41;5076435;28;20032;-65
2023/05/14 10:19:08;;;;;;;0.20;0.20;;;;;;;23.17;66.06;99655.41;5076704;28;20348;-64
2023/05/14 10:21:42;;;;;;;0.20;0.20;;;;;;;23.23;66.08;99664.94;5075365;28;20119;-65
2023/05/14 10:24:08;;;;;;;0.20;0.20;;;;;;;23.08;67.22;99666.72;5076626;28;20033;-64
2023/05/14 10:26:39;;;;;;;0.20;0.20;;;;;;;23.07;67.46;99676.50;5075513;28;20033;-65
2023/05/14 10:29:11;;;;;;;0.20;0.20;;;;;;;22.72;69.69;99665.13;5074709;28;20024;-64
2023/05/14 10:31:54;;;;;;;0.20;0.20;;;;;;;22.35;71.62;99663.97;5074742;28;20040;-65
2023/05/14 10:34:39;;;;;;;0.20;0.20;;;;;;;22.26;71.73;99661.03;5075117;28;20021;-65
2023/05/14 10:37:13;;;;;;;0.20;0.20;;;;;;;21.93;72.29;99659.19;5076147;28;20032;-65
2023/05/14 10:39:46;;;;;;;0.20;0.20;;;;;;;21.76;73.55;99656.94;5075035;28;20375;-64
2023/05/14 10:42:23;;;;;;;0.20;0.20;;;;;;;21.92;73.58;99677.44;5074890;28;20099;-65
2023/05/14 10:44:57;;;;;;;0.20;0.20;;;;;;;21.70;74.07;99653.88;5074790;28;20111;-66
2023/05/14 10:47:27;;;;;;;0.20;0.20;;;;;;;21.65;74.52;99679.91;5074457;28;20494;-64
2023/05/14 10:49:55;;;;;;;0.20;0.20;;;;;;;21.65;74.85;99674.25;5076000;28;20028;-66
2023/05/14 10:52:24;;;;;;;0.20;0.20;;;;;;;21.74;74.77;99682.88;5074056;28;20155;-66
2023/05/14 10:54:55;;;;;;;0.20;0.20;;;;;;;21.67;75.45;99677.41;5074694;28;20123;-66
2023/05/14 10:57:26;;;;;;;0.20;0.20;;;;;;;21.77;74.34;99681.97;5075118;28;20043;-64
2023/05/14 10:59:56;;;;;;;0.20;0.20;;;;;;;21.79;73.96;99682.31;5074582;28;20032;-66
2023/05/14 11:02:26;;;;;;;0.20;0.20;;;;;;;21.87;73.76;99675.19;5073731;28;20463;-66
2023/05/14 11:05:05;;;;;;;0.20;0.20;;;;;;;22.10;73.15;99670.41;5074518;28;20036;-65
2023/05/14 11:07:36;;;;;;;0.20;0.20;;;;;;;22.26;71.41;99673.16;5074059;28;20036;-65
2023/05/14 11:10:07;;;;;;;0.20;0.20;;;;;;;22.35;70.24;99676.09;5074030;28;20021;-66
2023/05/14 11:12:38;;;;;;;0.20;0.20;;;;;;;22.11;70.05;99683.38;5074697;28;20040;-65
2023/05/14 11:15:08;;;;;;;0.20;0.20;;;;;;;22.23;70.31;99665.56;5074237;28;20375;-65
2023/05/14 11:17:35;;;;;;;0.20;0.20;;;;;;;22.57;69.92;99673.31;5075514;28;20029;-65
2023/05/14 11:20:01;;;;;;;0.20;0.20;;;;;;;22.61;69.51;99676.03;5073882;28;20023;-66
2023/05/14 11:22:29;;;;;;;0.20;0.20;;;;;;;22.16;71.89;99679.97;5073867;28;20036;-66
2023/05/14 11:24:56;;;;;;;0.20;0.20;;;;;;;22.17;71.18;99681.56;5074393;28;20051;-65
2023/05/14 11:27:25;;;;;;;0.20;0.20;;;;;;;22.48;69.81;99674.03;5073815;28;20033;-67
2023/05/14 11:29:51;;;;;;;0.20;0.20;;;;;;;22.47;69.07;99663.94;5073601;28;20029;-65
2023/05/14 11:32:18;;;;;;;0.20;0.20;;;;;;;22.71;68.65;99661.50;5073964;28;20368;-70
2023/05/14 11:34:45;;;;;;;0.10;0.10;;;;;;;22.56;68.79;99668.13;5074286;28;20029;-69
2023/05/14 11:37:11;;;;;;;0.20;0.20;;;;;;;21.85;71.57;99649.38;5073675;28;20032;-70